createdAt,value
2023-05-15T00:01:03.020Z,99705.31
2023-05-15T00:03:29.818Z,99705.78
2023-05-15T00:05:57.276Z,99693.72
2023-05-15T00:08:23.972Z,99687.31
2023-05-15T00:11:00.705Z,99677.97
2023-05-15T00:13:28.528Z,99667.94
2023-05-15T00:15:55.196Z,99663.41
2023-05-15T00:18:21.994Z,99652.69
2023-05-15T00:20:48.590Z,99652.53
2023-05-15T00:23:15.241Z,99663.22
2023-05-15T00:25:42.086Z,99667.16
2023-05-15T00:28:08.798Z,99672.78
2023-05-15T00:30:35.512Z,99675.34
2023-05-15T00:33:02.270Z,99678.50
2023-05-15T00:35:28.950Z,99676.62
2023-05-15T00:37:55.567Z,99684.53
2023-05-15T00:40:23.815Z,99690.78
2023-05-15T00:42:51.255Z,99690.91
2023-05-15T00:45:18.365Z,99695.00
2023-05-15T00:47:45.916Z,99690.66
2023-05-15T00:50:12.698Z,99691.41
2023-05-15T00:52:39.388Z,99684.53
2023-05-15T00:55:06.794Z,99683.84
2023-05-15T00:57:33.694Z,99675.59
2023-05-15T01:00:01.889Z,99682.19
2023-05-15T01:02:28.750Z,99694.47
2023-05-15T01:04:55.518Z,99688.25
2023-05-15T01:07:22.220Z,99689.28
2023-05-15T01:09:49.755Z,99675.63
2023-05-15T01:12:17.276Z,99668.81
2023-05-15T01:14:43.895Z,99662.16
2023-05-15T01:17:10.513Z,99663.34
2023-05-15T01:19:37.323Z,99666.88
2023-05-15T01:22:22.827Z,99679.06
2023-05-15T01:25:08.375Z,99677.25
2023-05-15T01:27:37.780Z,99677.78
2023-05-15T01:30:26.446Z,99680.84
2023-05-15T01:32:53.081Z,99681.47
2023-05-15T01:35:52.166Z,99681.19
2023-05-15T01:38:21.633Z,99678.28
2023-05-15T01:40:49.251Z,99660.25
2023-05-15T01:43:18.714Z,99657.84
2023-05-15T01:45:45.415Z,99659.44
2023-05-15T01:48:13.236Z,99658.66
2023-05-15T01:50:41.276Z,99667.00
2023-05-15T01:53:09.571Z,99671.22
2023-05-15T01:55:37.725Z,99674.50
2023-05-15T01:58:05.348Z,99660.44
2023-05-15T02:00:32.979Z,99656.63
2023-05-15T02:03:00.333Z,99645.97
2023-05-15T02:05:27.609Z,99650.03
2023-05-15T02:07:55.067Z,99648.22
2023-05-15T02:10:22.383Z,99647.50
2023-05-15T02:12:49.723Z,99644.69
2023-05-15T02:15:17.233Z,99637.16
2023-05-15T02:17:43.968Z,99639.50
2023-05-15T02:20:10.700Z,99639.16
2023-05-15T02:22:37.352Z,99648.50
2023-05-15T02:25:04.188Z,99643.75
2023-05-15T02:27:42.970Z,99633.56
2023-05-15T02:30:12.752Z,99621.13
2023-05-15T02:32:59.925Z,99615.72
2023-05-15T02:35:37.951Z,99620.41
2023-05-15T02:38:08.288Z,99615.59
2023-05-15T02:40:36.780Z,99594.78
2023-05-15T02:43:04.352Z,99604.28
2023-05-15T02:45:31.655Z,99599.94
2023-05-15T02:47:59.274Z,99602.97
2023-05-15T02:50:26.689Z,99597.91
2023-05-15T02:53:01.672Z,99608.22
2023-05-15T02:55:28.360Z,99606.91
2023-05-15T02:57:54.982Z,99607.88
2023-05-15T03:00:21.832Z,99612.44
2023-05-15T03:02:48.580Z,99624.31
2023-05-15T03:05:15.256Z,99618.81
2023-05-15T03:07:42.386Z,99621.25
2023-05-15T03:10:09.057Z,99626.56
2023-05-15T03:12:36.192Z,99633.78
2023-05-15T03:15:02.821Z,99627.19
2023-05-15T03:17:29.453Z,99631.91
2023-05-15T03:19:56.721Z,99640.75
2023-05-15T03:22:23.472Z,99628.28
2023-05-15T03:24:50.174Z,99625.03
2023-05-15T03:27:16.774Z,99625.63
2023-05-15T03:29:43.577Z,99630.38
2023-05-15T03:32:10.284Z,99628.94
2023-05-15T03:34:37.140Z,99620.00
2023-05-15T03:37:04.031Z,99628.03
2023-05-15T03:39:30.654Z,99622.19
2023-05-15T03:41:57.312Z,99610.41
2023-05-15T03:44:23.983Z,99614.00
2023-05-15T03:46:50.716Z,99612.81
2023-05-15T03:49:17.389Z,99619.78
2023-05-15T03:51:44.092Z,99619.97
2023-05-15T03:54:11.002Z,99627.50
2023-05-15T03:56:37.749Z,99630.94
2023-05-15T03:59:04.402Z,99638.47
2023-05-15T04:01:31.121Z,99634.16
2023-05-15T04:03:57.907Z,99624.88
2023-05-15T04:06:24.555Z,99623.72
2023-05-15T04:08:51.314Z,99616.59
2023-05-15T04:11:18.629Z,99614.66
2023-05-15T04:13:45.291Z,99622.63
2023-05-15T04:16:11.950Z,99621.50
2023-05-15T04:18:39.848Z,99627.06
2023-05-15T04:21:06.569Z,99627.75
2023-05-15T04:23:33.239Z,99622.09
2023-05-15T04:25:59.992Z,99626.56
2023-05-15T04:30:53.660Z,99630.78
2023-05-15T04:33:20.346Z,99639.97
2023-05-15T04:35:48.271Z,99637.25
2023-05-15T04:38:15.003Z,99636.78
2023-05-15T04:40:41.720Z,99633.59
2023-05-15T04:43:08.543Z,99641.00
2023-05-15T04:45:35.412Z,99653.25
2023-05-15T04:48:02.075Z,99657.87
2023-05-15T04:50:28.717Z,99656.91
2023-05-15T04:52:55.434Z,99659.47
2023-05-15T04:55:22.139Z,99679.06
2023-05-15T04:57:48.891Z,99664.19
2023-05-15T05:00:15.803Z,99663.47
2023-05-15T05:02:45.500Z,99660.28
2023-05-15T05:05:14.805Z,99657.16
2023-05-15T05:07:42.612Z,99662.59
2023-05-15T05:10:09.615Z,99662.88
2023-05-15T05:12:36.211Z,99665.25
2023-05-15T05:15:02.882Z,99672.00
2023-05-15T05:17:29.887Z,99662.97
2023-05-15T05:19:56.621Z,99663.69
2023-05-15T05:22:23.197Z,99657.91
2023-05-15T05:24:49.869Z,99665.94
2023-05-15T05:27:16.520Z,99661.31
2023-05-15T05:29:43.168Z,99662.94
2023-05-15T05:32:09.812Z,99661.75
2023-05-15T05:34:36.551Z,99679.94
2023-05-15T05:37:03.331Z,99681.97
2023-05-15T05:39:30.087Z,99676.75
2023-05-15T05:41:56.828Z,99666.63
2023-05-15T05:44:23.499Z,99676.84
2023-05-15T05:46:51.597Z,99665.47
2023-05-15T05:49:18.343Z,99656.41
2023-05-15T05:51:46.642Z,99654.38
2023-05-15T05:54:15.215Z,99655.66
2023-05-15T05:56:42.617Z,99648.25
2023-05-15T05:59:09.426Z,99654.53
2023-05-15T06:01:36.500Z,99660.44
2023-05-15T06:04:03.282Z,99665.66
2023-05-15T06:06:30.229Z,99662.66
2023-05-15T06:08:57.379Z,99667.28
2023-05-15T06:11:25.576Z,99673.94
2023-05-15T06:13:52.897Z,99671.03
2023-05-15T06:16:19.825Z,99673.75
2023-05-15T06:18:46.672Z,99666.09
2023-05-15T06:21:13.353Z,99673.37
2023-05-15T06:23:40.050Z,99667.59
2023-05-15T06:26:06.936Z,99671.19
2023-05-15T06:28:33.642Z,99658.44
2023-05-15T06:31:00.435Z,99664.19
2023-05-15T06:33:27.127Z,99667.19
2023-05-15T06:35:53.791Z,99668.94
2023-05-15T06:38:20.536Z,99674.84
2023-05-15T06:40:47.569Z,99677.16
2023-05-15T06:43:14.212Z,99675.69
2023-05-15T06:45:40.981Z,99671.19
2023-05-15T06:48:07.641Z,99679.88
2023-05-15T06:50:34.288Z,99674.47
2023-05-15T06:53:01.461Z,99670.09
2023-05-15T06:55:28.260Z,99676.59
2023-05-15T06:57:55.014Z,99680.56
2023-05-15T07:00:21.739Z,99689.94
2023-05-15T07:02:48.412Z,99690.97
2023-05-15T07:05:15.289Z,99701.28
2023-05-15T07:07:42.906Z,99708.53
2023-05-15T07:10:09.697Z,99711.09
2023-05-15T07:12:36.426Z,99719.03
2023-05-15T07:15:03.237Z,99713.97
2023-05-15T07:17:31.338Z,99702.00
2023-05-15T07:19:58.149Z,99703.09
2023-05-15T07:22:26.964Z,99696.47
2023-05-15T07:24:53.709Z,99693.09
2023-05-15T07:27:20.316Z,99694.19
2023-05-15T07:29:47.007Z,99691.91
2023-05-15T07:32:13.674Z,99698.03
2023-05-15T07:34:40.483Z,99701.66
2023-05-15T07:37:07.179Z,99690.75
2023-05-15T07:39:33.852Z,99687.34
2023-05-15T07:42:00.986Z,99692.47
2023-05-15T07:44:27.568Z,99700.03
2023-05-15T07:46:55.451Z,99709.16
2023-05-15T07:49:22.188Z,99715.09
2023-05-15T07:51:48.840Z,99711.03
2023-05-15T07:54:15.969Z,99720.06
2023-05-15T07:56:42.806Z,99710.50
2023-05-15T07:59:09.754Z,99710.44
2023-05-15T08:01:36.921Z,99716.59
2023-05-15T08:04:06.059Z,99717.66
2023-05-15T08:06:33.250Z,99718.56
2023-05-15T08:09:00.055Z,99716.44
2023-05-15T08:11:26.932Z,99716.06
2023-05-15T08:13:53.702Z,99718.94
2023-05-15T08:16:20.574Z,99713.97
2023-05-15T08:18:47.963Z,99707.69
2023-05-15T08:23:41.398Z,99701.75
2023-05-15T08:26:08.073Z,99709.28
2023-05-15T08:28:34.743Z,99707.66
2023-05-15T08:31:01.445Z,99703.78
2023-05-15T08:33:28.146Z,99699.25
2023-05-15T08:35:54.942Z,99700.25
2023-05-15T08:38:22.728Z,99698.09
2023-05-15T08:40:51.018Z,99700.78
2023-05-15T08:43:18.468Z,99718.13
2023-05-15T08:45:45.289Z,99712.81
2023-05-15T08:48:14.215Z,99722.56
2023-05-15T08:50:41.772Z,99724.41
2023-05-15T08:53:08.471Z,99729.16
2023-05-15T08:55:35.483Z,99728.06
2023-05-15T08:58:02.633Z,99724.53
2023-05-15T09:00:30.389Z,99734.97
2023-05-15T09:03:03.722Z,99730.78
2023-05-15T09:05:30.560Z,99741.69
2023-05-15T09:07:59.242Z,99737.97
2023-05-15T09:10:25.920Z,99751.59
2023-05-15T09:12:53.610Z,99752.06
2023-05-15T09:15:23.500Z,99745.44
2023-05-15T09:17:50.781Z,99749.94
2023-05-15T09:20:33.772Z,99743.13
2023-05-15T09:23:01.556Z,99745.31
2023-05-15T09:25:44.988Z,99745.19
2023-05-15T09:28:24.890Z,99742.28
2023-05-15T09:30:56.904Z,99742.06
2023-05-15T09:33:28.122Z,99742.56
2023-05-15T09:35:54.762Z,99741.28
2023-05-15T09:38:21.921Z,99753.16
2023-05-15T09:40:48.658Z,99748.72
2023-05-15T09:43:16.255Z,99739.00
2023-05-15T09:45:43.322Z,99740.91
2023-05-15T09:48:12.122Z,99738.53
2023-05-15T09:50:39.813Z,99742.41
2023-05-15T09:53:06.702Z,99739.19
2023-05-15T09:55:36.398Z,99747.03
2023-05-15T09:58:06.629Z,99740.44
2023-05-15T10:00:33.860Z,99746.25
2023-05-15T10:03:04.451Z,99736.34
2023-05-15T10:05:43.135Z,99743.28
2023-05-15T10:08:10.869Z,99747.44
2023-05-15T10:10:37.548Z,99740.19
2023-05-15T10:13:06.112Z,99736.66
2023-05-15T10:15:33.422Z,99725.94
2023-05-15T10:18:01.559Z,99729.34
2023-05-15T10:20:28.402Z,99725.28
2023-05-15T10:22:56.483Z,99730.50
2023-05-15T10:25:26.112Z,99735.13
2023-05-15T10:27:53.034Z,99735.97
2023-05-15T10:30:20.269Z,99730.31
2023-05-15T10:32:48.991Z,99736.69
2023-05-15T10:35:16.791Z,99730.94
2023-05-15T10:37:45.480Z,99728.91
2023-05-15T10:40:13.181Z,99731.81
2023-05-15T10:42:41.788Z,99730.19
2023-05-15T10:45:09.081Z,99727.41
2023-05-15T10:47:36.685Z,99727.34
2023-05-15T10:50:04.747Z,99723.66
2023-05-15T10:52:36.460Z,99724.66
2023-05-15T10:55:06.019Z,99720.63
2023-05-15T10:57:32.872Z,99720.41
2023-05-15T10:59:59.628Z,99716.53
2023-05-15T11:02:29.677Z,99710.03
2023-05-15T11:04:56.595Z,99698.50
2023-05-15T11:07:24.446Z,99708.47
2023-05-15T11:09:51.752Z,99706.13
2023-05-15T11:12:18.708Z,99699.62
2023-05-15T11:14:57.433Z,99704.94
2023-05-15T11:17:24.619Z,99701.19
2023-05-15T11:19:51.663Z,99691.94
2023-05-15T11:22:18.594Z,99700.53
2023-05-15T11:24:53.232Z,99695.94
2023-05-15T11:27:21.294Z,99700.94
2023-05-15T11:30:03.491Z,99708.47
2023-05-15T11:32:48.912Z,99706.00
2023-05-15T11:35:18.491Z,99706.94
2023-05-15T11:37:48.175Z,99708.41
2023-05-15T11:40:18.901Z,99705.09
2023-05-15T11:43:05.199Z,99708.34
2023-05-15T11:45:36.652Z,99707.47
2023-05-15T11:48:04.748Z,99714.09
2023-05-15T11:50:33.364Z,99699.44
2023-05-15T11:53:04.715Z,99703.09
2023-05-15T11:55:32.699Z,99700.78
2023-05-15T11:57:59.699Z,99694.41
2023-05-15T12:00:26.802Z,99696.47
2023-05-15T12:02:54.055Z,99701.00
2023-05-15T12:05:21.180Z,99699.88
2023-05-15T12:07:48.022Z,99703.84
2023-05-15T12:10:15.222Z,99703.81
2023-05-15T12:12:44.955Z,99697.22
2023-05-15T12:15:15.316Z,99686.16
2023-05-15T12:17:42.210Z,99693.59
2023-05-15T12:20:11.056Z,99698.97
2023-05-15T12:22:44.351Z,99706.91
2023-05-15T12:25:11.825Z,99695.84
2023-05-15T12:27:39.710Z,99694.50
2023-05-15T12:30:07.288Z,99684.56
2023-05-15T12:32:34.857Z,99681.97
2023-05-15T12:35:02.099Z,99676.50
2023-05-15T12:37:31.415Z,99667.50
2023-05-15T12:40:00.524Z,99656.88
2023-05-15T12:42:27.497Z,99656.13
2023-05-15T12:44:54.928Z,99655.94
2023-05-15T12:47:30.843Z,99649.47
2023-05-15T12:49:58.219Z,99649.19
2023-05-15T12:52:28.269Z,99652.53
2023-05-15T12:54:54.984Z,99645.38
2023-05-15T12:57:21.674Z,99642.25
2023-05-15T12:59:48.705Z,99641.50
2023-05-15T13:02:17.449Z,99636.84
2023-05-15T13:04:46.412Z,99643.19
2023-05-15T13:07:16.838Z,99639.75
2023-05-15T13:09:43.565Z,99640.75
2023-05-15T13:12:12.205Z,99645.34
2023-05-15T13:14:38.951Z,99646.84
2023-05-15T13:17:06.174Z,99636.56
2023-05-15T13:19:32.969Z,99634.75
2023-05-15T13:22:00.401Z,99629.53
2023-05-15T13:24:27.201Z,99633.69
2023-05-15T13:26:54.048Z,99630.09
2023-05-15T13:29:20.875Z,99633.50
2023-05-15T13:31:47.754Z,99642.72
2023-05-15T13:34:14.459Z,99644.25
2023-05-15T13:36:41.253Z,99652.75
2023-05-15T13:39:07.992Z,99650.37
2023-05-15T13:41:35.872Z,99643.47
2023-05-15T13:44:02.524Z,99641.88
2023-05-15T13:46:29.200Z,99645.78
2023-05-15T13:48:55.948Z,99646.88
2023-05-15T13:51:22.855Z,99655.19
2023-05-15T13:53:49.727Z,99658.03
2023-05-15T13:56:16.787Z,99655.16
2023-05-15T13:58:43.748Z,99669.88
2023-05-15T14:01:10.442Z,99663.44
2023-05-15T14:03:37.356Z,99673.22
2023-05-15T14:06:04.273Z,99680.94
2023-05-15T14:08:30.963Z,99674.31
2023-05-15T14:10:57.595Z,99667.53
2023-05-15T14:13:24.539Z,99672.66
2023-05-15T14:15:51.393Z,99668.69
2023-05-15T14:18:18.151Z,99651.75
2023-05-15T14:20:44.894Z,99649.66
2023-05-15T14:23:11.594Z,99652.88
2023-05-15T14:25:38.276Z,99662.44
2023-05-15T14:28:04.979Z,99664.19
2023-05-15T14:30:31.597Z,99671.97
2023-05-15T14:32:58.345Z,99672.44
2023-05-15T14:35:25.090Z,99669.66
2023-05-15T14:37:51.781Z,99665.34
2023-05-15T14:40:18.506Z,99656.88
2023-05-15T14:42:45.183Z,99655.75
2023-05-15T14:45:11.885Z,99664.63
2023-05-15T14:47:38.727Z,99667.97
2023-05-15T14:50:05.642Z,99679.50
2023-05-15T14:52:32.378Z,99685.94
2023-05-15T14:55:08.482Z,99682.63
2023-05-15T14:57:36.438Z,99680.59
2023-05-15T15:00:04.833Z,99687.63
2023-05-15T15:02:31.562Z,99682.53
2023-05-15T15:04:58.501Z,99696.66
2023-05-15T15:07:29.202Z,99696.03
2023-05-15T15:09:55.903Z,99698.63
2023-05-15T15:12:22.596Z,99692.12
2023-05-15T15:14:49.302Z,99701.75
2023-05-15T15:17:15.956Z,99695.22
2023-05-15T15:19:42.787Z,99684.16
2023-05-15T15:22:09.435Z,99699.66
2023-05-15T15:24:36.171Z,99701.84
2023-05-15T15:27:02.787Z,99709.91
2023-05-15T15:29:29.468Z,99703.69
2023-05-15T15:31:56.149Z,99694.59
2023-05-15T15:34:22.817Z,99702.63
2023-05-15T15:36:49.497Z,99689.13
2023-05-15T15:39:16.545Z,99690.88
2023-05-15T15:41:43.219Z,99692.50
2023-05-15T15:44:09.860Z,99688.34
2023-05-15T15:46:36.509Z,99689.69
2023-05-15T15:49:04.627Z,99697.94
2023-05-15T15:51:33.326Z,99708.75
2023-05-15T15:54:00.010Z,99704.44
2023-05-15T15:56:26.643Z,99704.06
2023-05-15T15:58:53.342Z,99714.59
2023-05-15T16:01:20.033Z,99706.28
2023-05-15T16:03:46.817Z,99718.56
2023-05-15T16:06:13.472Z,99713.03
2023-05-15T16:08:40.145Z,99716.66
2023-05-15T16:11:06.803Z,99717.97
2023-05-15T16:13:33.464Z,99720.88
2023-05-15T16:16:00.125Z,99719.06
2023-05-15T16:18:26.888Z,99724.28
2023-05-15T16:20:53.633Z,99730.12
2023-05-15T16:23:21.388Z,99738.22
2023-05-15T16:25:48.217Z,99725.06
2023-05-15T16:28:14.981Z,99723.47
2023-05-15T16:30:48.808Z,99719.87
2023-05-15T16:33:17.907Z,99731.25
2023-05-15T16:35:44.775Z,99729.03
2023-05-15T16:38:11.810Z,99724.41
2023-05-15T16:40:38.517Z,99730.59
2023-05-15T16:43:05.539Z,99735.34
2023-05-15T16:45:32.210Z,99731.59
2023-05-15T16:47:58.903Z,99741.06
2023-05-15T16:50:25.988Z,99741.97
2023-05-15T16:52:52.836Z,99741.28
2023-05-15T16:55:19.779Z,99742.44
2023-05-15T16:57:46.858Z,99741.75
2023-05-15T17:00:14.389Z,99747.66
2023-05-15T17:02:42.269Z,99741.37
2023-05-15T17:05:09.967Z,99740.09
2023-05-15T17:07:39.658Z,99733.84
2023-05-15T17:10:10.181Z,99739.34
2023-05-15T17:12:37.436Z,99749.31
2023-05-15T17:15:04.620Z,99745.47
2023-05-15T17:17:31.380Z,99747.06
2023-05-15T17:19:58.972Z,99744.44
2023-05-15T17:22:26.577Z,99743.69
2023-05-15T17:24:53.262Z,99747.59
2023-05-15T17:27:20.132Z,99748.91
2023-05-15T17:29:47.469Z,99747.78
2023-05-15T17:32:14.403Z,99742.91
2023-05-15T17:34:41.257Z,99748.34
2023-05-15T17:37:08.215Z,99754.56
2023-05-15T17:39:35.153Z,99759.66
2023-05-15T17:42:03.463Z,99759.50
2023-05-15T17:44:31.324Z,99750.66
2023-05-15T17:46:58.579Z,99754.47
2023-05-15T17:49:25.382Z,99765.09
2023-05-15T17:51:52.627Z,99760.22
2023-05-15T17:54:19.251Z,99759.97
2023-05-15T17:56:46.093Z,99758.50
2023-05-15T17:59:12.780Z,99768.59
2023-05-15T18:01:39.697Z,99765.72
2023-05-15T18:04:06.422Z,99768.22
2023-05-15T18:06:34.405Z,99765.25
2023-05-15T18:09:01.613Z,99769.84
2023-05-15T18:11:28.373Z,99770.97
2023-05-15T18:13:55.225Z,99770.09
2023-05-15T18:16:22.049Z,99781.09
2023-05-15T18:18:49.617Z,99780.50
2023-05-15T18:21:16.401Z,99780.22
2023-05-15T18:23:42.994Z,99785.31
2023-05-15T18:26:10.381Z,99782.09
2023-05-15T18:28:37.253Z,99783.75
2023-05-15T18:31:04.012Z,99792.03
2023-05-15T18:33:30.651Z,99791.94
2023-05-15T18:35:57.327Z,99797.03
2023-05-15T18:38:23.973Z,99801.50
2023-05-15T18:40:51.864Z,99808.06
2023-05-15T18:43:18.637Z,99804.44
2023-05-15T18:45:46.527Z,99807.84
2023-05-15T18:48:13.222Z,99812.53
2023-05-15T18:50:39.887Z,99821.91
2023-05-15T18:53:07.380Z,99811.50
2023-05-15T18:55:34.153Z,99816.06
2023-05-15T18:58:01.002Z,99817.94
2023-05-15T19:00:37.812Z,99813.03
2023-05-15T19:03:05.987Z,99814.41
2023-05-15T19:05:34.395Z,99814.94
2023-05-15T19:08:01.620Z,99819.00
2023-05-15T19:10:29.838Z,99822.34
2023-05-15T19:12:56.941Z,99822.34
2023-05-15T19:15:23.639Z,99819.84
2023-05-15T19:17:50.381Z,99827.69
2023-05-15T19:20:17.114Z,99831.91
2023-05-15T19:22:43.702Z,99835.25
2023-05-15T19:25:10.698Z,99841.66
2023-05-15T19:27:37.775Z,99838.84
2023-05-15T19:30:07.061Z,99846.25
2023-05-15T19:32:34.589Z,99850.63
2023-05-15T19:35:01.906Z,99854.25
2023-05-15T19:37:28.647Z,99864.00
2023-05-15T19:39:56.559Z,99861.34
2023-05-15T19:42:23.269Z,99864.47
2023-05-15T19:44:49.895Z,99873.38
2023-05-15T19:47:16.623Z,99864.13
2023-05-15T19:49:43.237Z,99862.31
2023-05-15T19:52:09.848Z,99863.78
2023-05-15T19:54:36.464Z,99872.97
2023-05-15T19:57:03.191Z,99868.28
2023-05-15T19:59:30.036Z,99871.16
2023-05-15T20:01:57.016Z,99861.19
2023-05-15T20:04:23.791Z,99866.53
2023-05-15T20:06:50.638Z,99879.06
2023-05-15T20:09:17.700Z,99881.47
2023-05-15T20:11:45.306Z,99873.31
2023-05-15T20:14:12.020Z,99880.34
2023-05-15T20:16:38.783Z,99880.16
2023-05-15T20:19:06.675Z,99875.06
2023-05-15T20:21:33.442Z,99883.75
2023-05-15T20:24:00.201Z,99880.44
2023-05-15T20:26:27.268Z,99877.84
2023-05-15T20:28:53.846Z,99863.87
2023-05-15T20:31:20.573Z,99856.19
2023-05-15T20:33:47.175Z,99867.88
2023-05-15T20:36:16.857Z,99870.72
2023-05-15T20:38:45.030Z,99877.78
2023-05-15T20:41:11.851Z,99869.06
2023-05-15T20:43:39.220Z,99874.91
2023-05-15T20:46:07.944Z,99876.03
2023-05-15T20:48:34.640Z,99898.69
2023-05-15T20:51:01.299Z,99891.88
2023-05-15T20:53:29.105Z,99898.44
2023-05-15T20:55:55.781Z,99901.56
2023-05-15T20:58:22.389Z,99913.31
2023-05-15T21:00:49.096Z,99912.97
2023-05-15T21:03:15.860Z,99930.81
2023-05-15T21:05:42.594Z,99937.78
2023-05-15T21:08:09.287Z,99941.28
2023-05-15T21:10:36.030Z,99946.28
2023-05-15T21:13:02.730Z,99953.78
2023-05-15T21:15:29.406Z,99956.81
2023-05-15T21:17:56.184Z,99954.22
2023-05-15T21:20:22.843Z,99963.84
2023-05-15T21:22:49.465Z,99967.94
2023-05-15T21:25:16.542Z,99966.28
2023-05-15T21:27:43.206Z,99959.81
2023-05-15T21:30:10.091Z,99967.06
2023-05-15T21:32:36.830Z,99961.53
2023-05-15T21:35:03.722Z,99950.09
2023-05-15T21:37:30.850Z,99943.50
2023-05-15T21:39:57.567Z,99946.44
2023-05-15T21:42:24.215Z,99951.06
2023-05-15T21:44:50.919Z,99943.00
2023-05-15T21:47:17.559Z,99942.06
2023-05-15T21:49:44.173Z,99932.81
2023-05-15T21:52:11.018Z,99930.34
2023-05-15T21:54:37.725Z,99922.34
2023-05-15T21:57:04.499Z,99922.50
2023-05-15T21:59:31.100Z,99920.13
2023-05-15T22:01:57.811Z,99924.19
2023-05-15T22:04:24.515Z,99915.00
2023-05-15T22:06:51.358Z,99907.56
2023-05-15T22:09:17.997Z,99903.78
2023-05-15T22:11:44.690Z,99897.56
2023-05-15T22:14:11.297Z,99891.03
2023-05-15T22:16:37.956Z,99889.91
2023-05-15T22:19:04.640Z,99890.84
2023-05-15T22:21:31.906Z,99889.91
2023-05-15T22:23:58.799Z,99894.09
2023-05-15T22:26:25.681Z,99896.66
2023-05-15T22:28:58.303Z,99902.66
2023-05-15T22:31:25.104Z,99903.41
2023-05-15T22:33:51.883Z,99900.44
2023-05-15T22:36:18.612Z,99896.16
2023-05-15T22:38:45.328Z,99902.16
2023-05-15T22:41:12.007Z,99901.97
2023-05-15T22:43:38.721Z,99914.84
2023-05-15T22:46:05.534Z,99914.53
2023-05-15T22:48:32.808Z,99915.09
2023-05-15T22:50:59.590Z,99909.84
2023-05-15T22:53:27.228Z,99918.75
2023-05-15T22:55:53.930Z,99912.97
2023-05-15T22:58:20.531Z,99913.16
2023-05-15T23:00:47.236Z,99900.13
2023-05-15T23:03:13.949Z,99897.31
2023-05-15T23:05:40.750Z,99883.72
2023-05-15T23:08:07.470Z,99871.91
2023-05-15T23:10:34.066Z,99867.88
2023-05-15T23:13:00.767Z,99865.75
2023-05-15T23:15:27.489Z,99875.81
2023-05-15T23:17:54.208Z,99874.81
2023-05-15T23:20:20.881Z,99884.94
2023-05-15T23:22:47.529Z,99878.69
2023-05-15T23:25:14.186Z,99881.81
2023-05-15T23:27:41.028Z,99877.34
2023-05-15T23:30:07.992Z,99887.88
2023-05-15T23:32:34.726Z,99886.56
2023-05-15T23:35:01.390Z,99885.88
2023-05-15T23:37:27.987Z,99885.66
2023-05-15T23:39:55.447Z,99890.66
2023-05-15T23:42:22.985Z,99899.88
2023-05-15T23:44:50.196Z,99902.16
2023-05-15T23:47:16.889Z,99889.66
2023-05-15T23:49:43.806Z,99880.97
2023-05-15T23:52:10.725Z,99882.22
2023-05-15T23:54:37.391Z,99889.81
2023-05-15T23:57:04.162Z,99896.22
2023-05-15T23:59:31.243Z,99885.34
